sensor_id;sensor_type;location;lat;lon;timestamp;pressure;altitude;pressure_sealevel;temperature;humidity
14269;BME280;7218;51.480;7.006;2023-05-21T00:01:13;100633.41;;;12.66;100.00
14269;BME280;7218;51.480;7.006;2023-05-21T00:03:40;100624.81;;;12.61;100.00
14269;BME280;7218;51.480;7.006;2023-05-21T00:06:07;100623.16;;;12.57;100.00
14269;BME280;7218;51.480;7.006;2023-05-21T00:08:33;100625.88;;;12.52;100.00
14269;BME280;7218;51.480;7.006;2023-05-21T00:11:01;100621.41;;;12.58;100.00
14269;BME280;7218;51.480;7.006;2023-05-21T00:13:27;100620.75;;;12.48;100.00
14269;BME280;7218;51.480;7.006;2023-05-21T00:15:54;100618.13;;;12.48;100.00
14269;BME280;7218;51.480;7.006;2023-05-21T00:18:20;100617.38;;;12.43;100.00
14269;BME280;7218;51.480;7.006;2023-05-21T00:20:49;100607.69;;;12.46;100.00
14269;BME280;7218;51.480;7.006;2023-05-21T00:23:15;100605.94;;;12.47;100.00
14269;BME280;7218;51.480;7.006;2023-05-21T00:25:43;100603.41;;;12.44;100.00
14269;BME280;7218;51.480;7.006;2023-05-21T00:28:10;100599.72;;;12.52;100.00
14269;BME280;7218;51.480;7.006;2023-05-21T00:30:37;100601.66;;;12.44;100.00
14269;BME280;7218;51.480;7.006;2023-05-21T00:33:04;100595.56;;;12.42;100.00
14269;BME280;7218;51.480;7.006;2023-05-21T00:35:30;100599.06;;;12.41;100.00
14269;BME280;7218;51.480;7.006;2023-05-21T00:37:57;100597.97;;;12.53;100.00
14269;BME280;7218;51.480;7.006;2023-05-21T00:40:24;100601.66;;;12.43;100.00
14269;BME280;7218;51.480;7.006;2023-05-21T00:42:52;100599.84;;;12.46;100.00
14269;BME280;7218;51.480;7.006;2023-05-21T00:45:22;100600.56;;;12.53;100.00
14269;BME280;7218;51.480;7.006;2023-05-21T00:47:50;100588.47;;;12.49;100.00
14269;BME280;7218;51.480;7.006;2023-05-21T00:50:19;100596.38;;;12.46;100.00
14269;BME280;7218;51.480;7.006;2023-05-21T00:52:47;100592.97;;;12.42;100.00
14269;BME280;7218;51.480;7.006;2023-05-21T00:55:13;100579.91;;;12.41;100.00
14269;BME280;7218;51.480;7.006;2023-05-21T00:57:40;100586.88;;;12.42;100.00
14269;BME280;7218;51.480;7.006;2023-05-21T01:00:08;100587.72;;;12.44;100.00
14269;BME280;7218;51.480;7.006;2023-05-21T01:02:36;100588.41;;;12.50;100.00
14269;BME280;7218;51.480;7.006;2023-05-21T01:05:04;100590.19;;;12.50;100.00
14269;BME280;7218;51.480;7.006;2023-05-21T01:07:30;100578.97;;;12.45;100.00
14269;BME280;7218;51.480;7.006;2023-05-21T01:09:59;100577.94;;;12.50;100.00
14269;BME280;7218;51.480;7.006;2023-05-21T01:12:25;100581.50;;;12.48;100.00
14269;BME280;7218;51.480;7.006;2023-05-21T01:14:52;100571.13;;;12.45;100.00
14269;BME280;7218;51.480;7.006;2023-05-21T01:17:19;100573.63;;;12.49;100.00
14269;BME280;7218;51.480;7.006;2023-05-21T01:19:50;100568.31;;;12.52;100.00
14269;BME280;7218;51.480;7.006;2023-05-21T01:22:20;100566.59;;;12.51;100.00
14269;BME280;7218;51.480;7.006;2023-05-21T01:24:49;100569.22;;;12.51;100.00
14269;BME280;7218;51.480;7.006;2023-05-21T01:27:17;100573.78;;;12.42;100.00
14269;BME280;7218;51.480;7.006;2023-05-21T01:29:43;100570.31;;;12.41;100.00
14269;BME280;7218;51.480;7.006;2023-05-21T01:32:14;100573.56;;;12.51;100.00
14269;BME280;7218;51.480;7.006;2023-05-21T01:34:47;100564.94;;;12.49;100.00
14269;BME280;7218;51.480;7.006;2023-05-21T01:37:20;100557.84;;;12.52;100.00
14269;BME280;7218;51.480;7.006;2023-05-21T01:39:51;100556.22;;;12.48;100.00
14269;BME280;7218;51.480;7.006;2023-05-21T01:42:22;100565.84;;;12.46;100.00
14269;BME280;7218;51.480;7.006;2023-05-21T01:44:50;100561.56;;;12.44;100.00
14269;BME280;7218;51.480;7.006;2023-05-21T01:47:20;100558.09;;;12.42;100.00
14269;BME280;7218;51.480;7.006;2023-05-21T01:49:49;100570.38;;;12.38;100.00
14269;BME280;7218;51.480;7.006;2023-05-21T01:52:16;100562.69;;;12.32;100.00
14269;BME280;7218;51.480;7.006;2023-05-21T01:54:42;100560.09;;;12.31;100.00
14269;BME280;7218;51.480;7.006;2023-05-21T01:57:10;100564.28;;;12.38;100.00
14269;BME280;7218;51.480;7.006;2023-05-21T01:59:36;100560.84;;;12.36;100.00
14269;BME280;7218;51.480;7.006;2023-05-21T02:02:03;100551.34;;;12.32;100.00
14269;BME280;7218;51.480;7.006;2023-05-21T02:04:29;100553.00;;;12.36;100.00
14269;BME280;7218;51.480;7.006;2023-05-21T02:06:56;100558.34;;;12.31;100.00
14269;BME280;7218;51.480;7.006;2023-05-21T02:09:23;100544.34;;;12.34;100.00
14269;BME280;7218;51.480;7.006;2023-05-21T02:11:49;100550.47;;;12.33;100.00
14269;BME280;7218;51.480;7.006;2023-05-21T02:14:17;100546.84;;;12.38;100.00
14269;BME280;7218;51.480;7.006;2023-05-21T02:16:44;100545.34;;;12.28;100.00
14269;BME280;7218;51.480;7.006;2023-05-21T02:19:11;100547.94;;;12.28;100.00
14269;BME280;7218;51.480;7.006;2023-05-21T02:21:37;100543.72;;;12.23;100.00
14269;BME280;7218;51.480;7.006;2023-05-21T02:24:04;100545.41;;;12.25;100.00
14269;BME280;7218;51.480;7.006;2023-05-21T02:26:31;100544.56;;;12.25;100.00
14269;BME280;7218;51.480;7.006;2023-05-21T02:28:57;100540.13;;;12.27;100.00
14269;BME280;7218;51.480;7.006;2023-05-21T02:31:25;100536.53;;;12.32;100.00
14269;BME280;7218;51.480;7.006;2023-05-21T02:33:51;100539.31;;;12.25;100.00
14269;BME280;7218;51.480;7.006;2023-05-21T02:36:18;100536.84;;;12.19;100.00
14269;BME280;7218;51.480;7.006;2023-05-21T02:38:44;100543.84;;;12.17;100.00
14269;BME280;7218;51.480;7.006;2023-05-21T02:41:12;100548.09;;;12.21;100.00
14269;BME280;7218;51.480;7.006;2023-05-21T02:43:38;100539.56;;;12.14;100.00
14269;BME280;7218;51.480;7.006;2023-05-21T02:46:05;100536.84;;;12.19;100.00
14269;BME280;7218;51.480;7.006;2023-05-21T02:48:33;100542.00;;;12.22;100.00
14269;BME280;7218;51.480;7.006;2023-05-21T02:51:00;100541.31;;;12.14;100.00
14269;BME280;7218;51.480;7.006;2023-05-21T02:53:26;100538.72;;;12.11;100.00
14269;BME280;7218;51.480;7.006;2023-05-21T02:55:53;100539.69;;;12.06;100.00
14269;BME280;7218;51.480;7.006;2023-05-21T02:58:20;100540.53;;;12.08;100.00
14269;BME280;7218;51.480;7.006;2023-05-21T03:00:49;100547.50;;;12.10;100.00
14269;BME280;7218;51.480;7.006;2023-05-21T03:03:16;100535.41;;;12.04;100.00
14269;BME280;7218;51.480;7.006;2023-05-21T03:05:43;100534.47;;;12.06;100.00
14269;BME280;7218;51.480;7.006;2023-05-21T03:08:10;100534.78;;;11.93;100.00
14269;BME280;7218;51.480;7.006;2023-05-21T03:10:37;100533.13;;;11.89;100.00
14269;BME280;7218;51.480;7.006;2023-05-21T03:13:03;100540.94;;;11.90;100.00
14269;BME280;7218;51.480;7.006;2023-05-21T03:15:30;100533.09;;;11.90;100.00
14269;BME280;7218;51.480;7.006;2023-05-21T03:17:57;100533.16;;;11.87;100.00
14269;BME280;7218;51.480;7.006;2023-05-21T03:20:24;100527.09;;;11.85;100.00
14269;BME280;7218;51.480;7.006;2023-05-21T03:22:53;100528.63;;;11.95;100.00
14269;BME280;7218;51.480;7.006;2023-05-21T03:25:20;100527.09;;;11.85;100.00
14269;BME280;7218;51.480;7.006;2023-05-21T03:27:49;100532.25;;;11.88;100.00
14269;BME280;7218;51.480;7.006;2023-05-21T03:30:16;100529.75;;;11.84;100.00
14269;BME280;7218;51.480;7.006;2023-05-21T03:32:42;100533.31;;;11.80;100.00
14269;BME280;7218;51.480;7.006;2023-05-21T03:35:09;100523.72;;;11.80;100.00
14269;BME280;7218;51.480;7.006;2023-05-21T03:37:35;100530.72;;;11.78;100.00
14269;BME280;7218;51.480;7.006;2023-05-21T03:40:04;100530.47;;;11.90;100.00
14269;BME280;7218;51.480;7.006;2023-05-21T03:42:31;100526.28;;;11.82;100.00
14269;BME280;7218;51.480;7.006;2023-05-21T03:44:58;100524.63;;;11.79;100.00
14269;BME280;7218;51.480;7.006;2023-05-21T03:47:24;100527.25;;;11.78;100.00
14269;BME280;7218;51.480;7.006;2023-05-21T03:49:51;100519.47;;;11.75;100.00
14269;BME280;7218;51.480;7.006;2023-05-21T03:52:17;100525.53;;;11.77;100.00
14269;BME280;7218;51.480;7.006;2023-05-21T03:54:44;100526.28;;;11.82;100.00
14269;BME280;7218;51.480;7.006;2023-05-21T03:57:11;100521.81;;;11.88;100.00
14269;BME280;7218;51.480;7.006;2023-05-21T03:59:38;100519.28;;;11.84;100.00
14269;BME280;7218;51.480;7.006;2023-05-21T04:02:04;100524.63;;;11.79;100.00
14269;BME280;7218;51.480;7.006;2023-05-21T04:04:31;100525.41;;;11.81;100.00
14269;BME280;7218;51.480;7.006;2023-05-21T04:06:57;100523.66;;;11.83;100.00
14269;BME280;7218;51.480;7.006;2023-05-21T04:09:24;100522.69;;;11.87;100.00
14269;BME280;7218;51.480;7.006;2023-05-21T04:11:51;100527.00;;;11.90;100.00
14269;BME280;7218;51.480;7.006;2023-05-21T04:14:19;100533.72;;;12.01;100.00
14269;BME280;7218;51.480;7.006;2023-05-21T04:16:45;100530.38;;;11.95;100.00
14269;BME280;7218;51.480;7.006;2023-05-21T04:19:13;100531.19;;;11.97;100.00
14269;BME280;7218;51.480;7.006;2023-05-21T04:21:39;100525.06;;;11.99;100.00
14269;BME280;7218;51.480;7.006;2023-05-21T04:24:06;100525.94;;;12.00;100.00
14269;BME280;7218;51.480;7.006;2023-05-21T04:26:32;100536.31;;;12.01;100.00
14269;BME280;7218;51.480;7.006;2023-05-21T04:28:59;100535.34;;;12.05;100.00
14269;BME280;7218;51.480;7.006;2023-05-21T04:31:29;100529.88;;;12.18;100.00
14269;BME280;7218;51.480;7.006;2023-05-21T04:33:56;100536.97;;;12.11;100.00
14269;BME280;7218;51.480;7.006;2023-05-21T04:36:23;100539.59;;;12.11;100.00
14269;BME280;7218;51.480;7.006;2023-05-21T04:38:53;100538.56;;;12.20;100.00
14269;BME280;7218;51.480;7.006;2023-05-21T04:41:19;100542.94;;;12.18;100.00
14269;BME280;7218;51.480;7.006;2023-05-21T04:43:46;100540.22;;;12.24;100.00
14269;BME280;7218;51.480;7.006;2023-05-21T04:46:12;100540.22;;;12.24;100.00
14269;BME280;7218;51.480;7.006;2023-05-21T04:48:40;100538.97;;;12.40;100.00
14269;BME280;7218;51.480;7.006;2023-05-21T04:51:06;100531.28;;;12.32;100.00
14269;BME280;7218;51.480;7.006;2023-05-21T04:53:33;100534.56;;;12.42;100.00
14269;BME280;7218;51.480;7.006;2023-05-21T04:56:00;100537.13;;;12.45;100.00
14269;BME280;7218;51.480;7.006;2023-05-21T04:58:28;100531.84;;;12.46;100.00
14269;BME280;7218;51.480;7.006;2023-05-21T05:00:57;100531.84;;;12.46;100.00
14269;BME280;7218;51.480;7.006;2023-05-21T05:03:27;100531.69;;;12.52;100.00
14269;BME280;7218;51.480;7.006;2023-05-21T05:05:55;100530.56;;;12.64;100.00
14269;BME280;7218;51.480;7.006;2023-05-21T05:08:21;100525.34;;;12.64;100.00
14269;BME280;7218;51.480;7.006;2023-05-21T05:10:47;100524.34;;;12.70;100.00
14269;BME280;7218;51.480;7.006;2023-05-21T05:13:14;100525.03;;;12.76;100.00
14269;BME280;7218;51.480;7.006;2023-05-21T05:15:40;100524.88;;;12.82;100.00
14269;BME280;7218;51.480;7.006;2023-05-21T05:18:07;100525.66;;;12.86;100.00
14269;BME280;7218;51.480;7.006;2023-05-21T05:20:33;100521.97;;;12.94;100.00
14269;BME280;7218;51.480;7.006;2023-05-21T05:23:01;100528.47;;;13.14;100.00
14269;BME280;7218;51.480;7.006;2023-05-21T05:25:27;100531.09;;;13.14;100.00
14269;BME280;7218;51.480;7.006;2023-05-21T05:27:54;100537.13;;;13.16;100.00
14269;BME280;7218;51.480;7.006;2023-05-21T05:30:20;100527.22;;;13.28;100.00
14269;BME280;7218;51.480;7.006;2023-05-21T05:32:47;100524.47;;;13.33;100.00
14269;BME280;7218;51.480;7.006;2023-05-21T05:35:13;100517.34;;;13.38;100.00
14269;BME280;7218;51.480;7.006;2023-05-21T05:37:39;100520.78;;;13.40;100.00
14269;BME280;7218;51.480;7.006;2023-05-21T05:40:08;100517.00;;;13.50;100.00
14269;BME280;7218;51.480;7.006;2023-05-21T05:42:35;100517.09;;;13.47;100.00
14269;BME280;7218;51.480;7.006;2023-05-21T05:45:01;100518.72;;;13.51;100.00
14269;BME280;7218;51.480;7.006;2023-05-21T05:47:28;100517.56;;;13.61;100.00
14269;BME280;7218;51.480;7.006;2023-05-21T05:49:55;100521.66;;;13.71;100.00
14269;BME280;7218;51.480;7.006;2023-05-21T05:52:21;100521.53;;;13.76;100.00
14269;BME280;7218;51.480;7.006;2023-05-21T05:54:48;100506.53;;;13.81;100.00
14269;BME280;7218;51.480;7.006;2023-05-21T05:57:16;100512.19;;;13.97;100.00
14269;BME280;7218;51.480;7.006;2023-05-21T05:59:42;100512.28;;;13.94;100.00
14269;BME280;7218;51.480;7.006;2023-05-21T06:02:08;100514.59;;;14.04;100.00
14269;BME280;7218;51.480;7.006;2023-05-21T06:04:35;100511.84;;;14.09;100.00
14269;BME280;7218;51.480;7.006;2023-05-21T06:07:01;100509.09;;;14.12;100.00
14269;BME280;7218;51.480;7.006;2023-05-21T06:09:28;100517.81;;;14.14;100.00
14269;BME280;7218;51.480;7.006;2023-05-21T06:11:54;100501.78;;;14.23;99.70
14269;BME280;7218;51.480;7.006;2023-05-21T06:14:22;100500.63;;;14.32;99.48
14269;BME280;7218;51.480;7.006;2023-05-21T06:16:48;100501.38;;;14.35;100.00
14269;BME280;7218;51.480;7.006;2023-05-21T06:19:15;100496.13;;;14.35;99.55
14269;BME280;7218;51.480;7.006;2023-05-21T06:21:41;100501.16;;;14.44;99.26
14269;BME280;7218;51.480;7.006;2023-05-21T06:24:08;100501.88;;;14.49;98.69
14269;BME280;7218;51.480;7.006;2023-05-21T06:26:34;100505.25;;;14.53;98.70
14269;BME280;7218;51.480;7.006;2023-05-21T06:29:01;100506.47;;;14.69;97.99
14269;BME280;7218;51.480;7.006;2023-05-21T06:31:29;100509.84;;;14.99;96.20
14269;BME280;7218;51.480;7.006;2023-05-21T06:33:57;100506.53;;;14.94;95.02
14269;BME280;7218;51.480;7.006;2023-05-21T06:36:24;100504.53;;;15.00;95.90
14269;BME280;7218;51.480;7.006;2023-05-21T06:38:53;100504.47;;;15.02;95.72
14269;BME280;7218;51.480;7.006;2023-05-21T06:41:20;100492.94;;;15.06;95.45
14269;BME280;7218;51.480;7.006;2023-05-21T06:43:47;100498.50;;;15.23;94.16
14269;BME280;7218;51.480;7.006;2023-05-21T06:46:13;100491.34;;;15.27;94.02
14269;BME280;7218;51.480;7.006;2023-05-21T06:48:43;100481.44;;;15.10;96.11
14269;BME280;7218;51.480;7.006;2023-05-21T06:51:10;100489.38;;;15.08;96.29
14269;BME280;7218;51.480;7.006;2023-05-21T06:53:36;100482.25;;;15.12;95.59
14269;BME280;7218;51.480;7.006;2023-05-21T06:56:03;100478.00;;;15.33;94.08
14269;BME280;7218;51.480;7.006;2023-05-21T06:58:30;100481.50;;;15.33;94.33
14269;BME280;7218;51.480;7.006;2023-05-21T07:00:56;100483.16;;;15.36;94.29
14269;BME280;7218;51.480;7.006;2023-05-21T07:03:23;100481.25;;;15.39;94.17
14269;BME280;7218;51.480;7.006;2023-05-21T07:05:51;100483.56;;;15.48;93.52
14269;BME280;7218;51.480;7.006;2023-05-21T07:08:17;100487.16;;;15.46;93.46
14269;BME280;7218;51.480;7.006;2023-05-21T07:10:45;100481.44;;;15.60;92.95
14269;BME280;7218;51.480;7.006;2023-05-21T07:13:11;100489.00;;;15.69;91.92
14269;BME280;7218;51.480;7.006;2023-05-21T07:15:37;100488.53;;;15.81;92.11
14269;BME280;7218;51.480;7.006;2023-05-21T07:18:04;100494.25;;;15.92;91.35
14269;BME280;7218;51.480;7.006;2023-05-21T07:20:30;100487.69;;;16.04;91.34
14269;BME280;7218;51.480;7.006;2023-05-21T07:22:58;100484.69;;;16.34;90.33
14269;BME280;7218;51.480;7.006;2023-05-21T07:25:25;100478.13;;;16.45;89.07
14269;BME280;7218;51.480;7.006;2023-05-21T07:27:51;100476.53;;;16.41;88.59
14269;BME280;7218;51.480;7.006;2023-05-21T07:30:18;100487.69;;;16.47;89.15
14269;BME280;7218;51.480;7.006;2023-05-21T07:32:44;100478.78;;;16.73;87.14
14269;BME280;7218;51.480;7.006;2023-05-21T07:35:11;100475.75;;;16.82;86.92
14269;BME280;7218;51.480;7.006;2023-05-21T07:37:37;100474.19;;;16.98;85.15
14269;BME280;7218;51.480;7.006;2023-05-21T07:40:06;100476.94;;;17.15;85.52
14269;BME280;7218;51.480;7.006;2023-05-21T07:42:33;100475.22;;;17.14;85.35
14269;BME280;7218;51.480;7.006;2023-05-21T07:45:00;100478.22;;;17.07;84.95
14269;BME280;7218;51.480;7.006;2023-05-21T07:47:26;100472.88;;;17.08;84.92
14269;BME280;7218;51.480;7.006;2023-05-21T07:49:53;100474.38;;;17.14;86.11
14269;BME280;7218;51.480;7.006;2023-05-21T07:52:19;100471.16;;;17.28;85.06
14269;BME280;7218;51.480;7.006;2023-05-21T07:54:45;100473.19;;;17.41;84.29
14269;BME280;7218;51.480;7.006;2023-05-21T07:57:13;100469.00;;;17.56;81.86
14269;BME280;7218;51.480;7.006;2023-05-21T07:59:40;100463.47;;;17.62;82.19
14269;BME280;7218;51.480;7.006;2023-05-21T08:02:06;100469.47;;;17.84;81.92
14269;BME280;7218;51.480;7.006;2023-05-21T08:04:33;100463.66;;;17.96;81.85
14269;BME280;7218;51.480;7.006;2023-05-21T08:07:00;100472.47;;;18.14;81.95
14269;BME280;7218;51.480;7.006;2023-05-21T08:09:26;100480.25;;;18.17;81.86
14269;BME280;7218;51.480;7.006;2023-05-21T08:11:53;100475.41;;;18.27;80.24
14269;BME280;7218;51.480;7.006;2023-05-21T08:14:20;100474.88;;;18.37;79.67
14269;BME280;7218;51.480;7.006;2023-05-21T08:16:47;100480.22;;;18.36;79.66
14269;BME280;7218;51.480;7.006;2023-05-21T08:19:13;100483.78;;;18.35;78.92
14269;BME280;7218;51.480;7.006;2023-05-21T08:21:40;100494.06;;;18.41;79.32
14269;BME280;7218;51.480;7.006;2023-05-21T08:24:06;100488.84;;;18.39;79.06
14269;BME280;7218;51.480;7.006;2023-05-21T08:26:32;100497.63;;;18.40;79.45
14269;BME280;7218;51.480;7.006;2023-05-21T08:28:59;100494.84;;;18.62;79.48
14269;BME280;7218;51.480;7.006;2023-05-21T08:31:27;100503.25;;;18.70;79.09
14269;BME280;7218;51.480;7.006;2023-05-21T08:33:54;100507.97;;;18.63;78.98
14269;BME280;7218;51.480;7.006;2023-05-21T08:36:21;100499.84;;;18.68;77.86
14269;BME280;7218;51.480;7.006;2023-05-21T08:38:48;100504.44;;;18.81;77.50
14269;BME280;7218;51.480;7.006;2023-05-21T08:41:15;100512.59;;;18.94;76.82
14269;BME280;7218;51.480;7.006;2023-05-21T08:43:42;100504.34;;;19.00;77.68
14269;BME280;7218;51.480;7.006;2023-05-21T08:46:11;100498.00;;;19.21;76.66
14269;BME280;7218;51.480;7.006;2023-05-21T08:48:39;100502.66;;;19.51;75.48
14269;BME280;7218;51.480;7.006;2023-05-21T08:51:05;100508.25;;;19.62;73.88
14269;BME280;7218;51.480;7.006;2023-05-21T08:53:32;100505.78;;;19.74;73.85
14269;BME280;7218;51.480;7.006;2023-05-21T08:56:00;100504.38;;;20.00;73.08
14269;BME280;7218;51.480;7.006;2023-05-21T08:58:27;100496.53;;;20.14;73.04
14269;BME280;7218;51.480;7.006;2023-05-21T09:00:54;100501.66;;;20.02;73.80
14269;BME280;7218;51.480;7.006;2023-05-21T09:03:21;100491.16;;;20.16;70.98
14269;BME280;7218;51.480;7.006;2023-05-21T09:05:50;100490.81;;;20.53;70.03
14269;BME280;7218;51.480;7.006;2023-05-21T09:08:18;100486.09;;;20.74;68.65
14269;BME280;7218;51.480;7.006;2023-05-21T09:10:47;100486.34;;;20.99;67.92
14269;BME280;7218;51.480;7.006;2023-05-21T09:13:15;100476.84;;;21.11;68.02
14269;BME280;7218;51.480;7.006;2023-05-21T09:15:43;100482.13;;;21.11;67.50
14269;BME280;7218;51.480;7.006;2023-05-21T09:18:10;100480.38;;;20.96;67.65
14269;BME280;7218;51.480;7.006;2023-05-21T09:20:37;100477.44;;;21.16;67.52
14269;BME280;7218;51.480;7.006;2023-05-21T09:23:06;100478.25;;;21.46;66.60
14269;BME280;7218;51.480;7.006;2023-05-21T09:25:40;100470.28;;;21.46;65.39
14269;BME280;7218;51.480;7.006;2023-05-21T09:28:10;100457.19;;;22.00;63.66
14269;BME280;7218;51.480;7.006;2023-05-21T09:30:43;100461.16;;;22.07;63.79
14269;BME280;7218;51.480;7.006;2023-05-21T09:33:09;100457.50;;;22.22;62.62
14269;BME280;7218;51.480;7.006;2023-05-21T09:35:36;100455.66;;;22.64;61.54
14269;BME280;7218;51.480;7.006;2023-05-21T09:38:08;100458.09;;;23.06;59.54
14269;BME280;7218;51.480;7.006;2023-05-21T09:40:35;100454.72;;;23.17;59.17
14269;BME280;7218;51.480;7.006;2023-05-21T09:43:01;100465.16;;;23.33;58.32
14269;BME280;7218;51.480;7.006;2023-05-21T09:45:28;100448.38;;;23.45;57.98
14269;BME280;7218;51.480;7.006;2023-05-21T09:47:55;100445.91;;;23.67;56.02
14269;BME280;7218;51.480;7.006;2023-05-21T09:50:22;100445.13;;;23.90;55.11
14269;BME280;7218;51.480;7.006;2023-05-21T09:52:50;100443.91;;;24.20;55.39
14269;BME280;7218;51.480;7.006;2023-05-21T09:55:22;100432.31;;;24.32;54.10
14269;BME280;7218;51.480;7.006;2023-05-21T09:57:49;100438.50;;;24.32;53.77
14269;BME280;7218;51.480;7.006;2023-05-21T10:00:18;100437.09;;;24.39;53.57
14269;BME280;7218;51.480;7.006;2023-05-21T10:02:46;100434.53;;;24.38;53.05
14269;BME280;7218;51.480;7.006;2023-05-21T10:05:13;100432.34;;;24.56;53.10
14269;BME280;7218;51.480;7.006;2023-05-21T10:07:41;100430.19;;;24.61;52.67
14269;BME280;7218;51.480;7.006;2023-05-21T10:10:11;100435.50;;;24.96;52.51
14269;BME280;7218;51.480;7.006;2023-05-21T10:12:40;100433.84;;;25.06;51.70
14269;BME280;7218;51.480;7.006;2023-05-21T10:15:12;100427.03;;;24.91;52.32
14269;BME280;7218;51.480;7.006;2023-05-21T10:17:39;100419.75;;;24.93;51.37
14269;BME280;7218;51.480;7.006;2023-05-21T10:20:09;100417.13;;;25.26;50.05
14269;BME280;7218;51.480;7.006;2023-05-21T10:22:36;100424.03;;;25.17;51.06
14269;BME280;7218;51.480;7.006;2023-05-21T10:25:04;100415.44;;;25.47;51.33
14269;BME280;7218;51.480;7.006;2023-05-21T10:27:32;100418.16;;;25.69;51.58
14269;BME280;7218;51.480;7.006;2023-05-21T10:30:01;100423.97;;;25.63;49.88
14269;BME280;7218;51.480;7.006;2023-05-21T10:32:30;100414.97;;;25.42;50.09
14269;BME280;7218;51.480;7.006;2023-05-21T10:34:57;100413.47;;;25.05;51.99
14269;BME280;7218;51.480;7.006;2023-05-21T10:37:24;100417.25;;;25.13;50.77
14269;BME280;7218;51.480;7.006;2023-05-21T10:39:51;100419.56;;;25.18;50.98
14269;BME280;7218;51.480;7.006;2023-05-21T10:42:21;100413.03;;;25.33;51.09
14269;BME280;7218;51.480;7.006;2023-05-21T10:45:08;100406.00;;;25.43;50.87
14269;BME280;7218;51.480;7.006;2023-05-21T10:47:53;100399.47;;;25.69;51.01
14269;BME280;7218;51.480;7.006;2023-05-21T10:50:43;100399.69;;;25.89;50.80
14269;BME280;7218;51.480;7.006;2023-05-21T10:53:21;100397.66;;;25.70;51.21
14269;BME280;7218;51.480;7.006;2023-05-21T10:55:57;100400.16;;;25.83;50.75
14269;BME280;7218;51.480;7.006;2023-05-21T10:58:36;100392.53;;;26.32;49.88
14269;BME280;7218;51.480;7.006;2023-05-21T11:01:07;100397.75;;;26.34;48.61
14269;BME280;7218;51.480;7.006;2023-05-21T11:03:34;100399.78;;;26.41;49.15
14269;BME280;7218;51.480;7.006;2023-05-21T11:06:02;100390.97;;;26.30;47.10
14269;BME280;7218;51.480;7.006;2023-05-21T11:08:30;100391.06;;;26.39;47.40
14269;BME280;7218;51.480;7.006;2023-05-21T11:11:00;100393.72;;;26.39;47.74
14269;BME280;7218;51.480;7.006;2023-05-21T11:13:28;100398.50;;;27.09;47.67
14269;BME280;7218;51.480;7.006;2023-05-21T11:16:13;100396.22;;;27.35;45.64
14269;BME280;7218;51.480;7.006;2023-05-21T11:19:01;100404.59;;;27.72;46.15
14269;BME280;7218;51.480;7.006;2023-05-21T11:21:29;100403.16;;;27.37;45.21
14269;BME280;7218;51.480;7.006;2023-05-21T11:23:59;100397.38;;;27.12;44.59
14269;BME280;7218;51.480;7.006;2023-05-21T11:26:28;100396.78;;;27.08;44.96
14269;BME280;7218;51.480;7.006;2023-05-21T11:29:06;100398.84;;;27.25;45.06
14269;BME280;7218;51.480;7.006;2023-05-21T11:31:34;100394.13;;;27.08;45.83
14269;BME280;7218;51.480;7.006;2023-05-21T11:34:13;100389.47;;;26.37;46.09
14269;BME280;7218;51.480;7.006;2023-05-21T11:36:43;100389.78;;;26.23;47.46
14269;BME280;7218;51.480;7.006;2023-05-21T11:39:12;100392.22;;;26.14;49.21
14269;BME280;7218;51.480;7.006;2023-05-21T11:41:55;100388.66;;;26.25;47.92
14269;BME280;7218;51.480;7.006;2023-05-21T11:44:36;100387.63;;;25.94;48.22
14269;BME280;7218;51.480;7.006;2023-05-21T11:47:06;100392.34;;;26.02;49.04
14269;BME280;7218;51.480;7.006;2023-05-21T11:49:34;100401.22;;;25.91;49.27
14269;BME280;7218;51.480;7.006;2023-05-21T11:52:01;100397.13;;;25.87;48.88
14269;BME280;7218;51.480;7.006;2023-05-21T11:54:29;100399.41;;;26.03;49.32
14269;BME280;7218;51.480;7.006;2023-05-21T11:56:58;100400.25;;;26.03;47.35
14269;BME280;7218;51.480;7.006;2023-05-21T11:59:25;100404.34;;;26.30;48.76
14269;BME280;7218;51.480;7.006;2023-05-21T12:01:52;100397.53;;;26.58;48.60
14269;BME280;7218;51.480;7.006;2023-05-21T12:04:20;100397.59;;;26.67;48.36
14269;BME280;7218;51.480;7.006;2023-05-21T12:06:46;100400.94;;;26.80;49.68
14269;BME280;7218;51.480;7.006;2023-05-21T12:09:14;100404.72;;;26.78;46.00
14269;BME280;7218;51.480;7.006;2023-05-21T12:11:41;100392.94;;;27.01;46.74
14269;BME280;7218;51.480;7.006;2023-05-21T12:14:08;100394.63;;;27.23;46.61
14269;BME280;7218;51.480;7.006;2023-05-21T12:16:35;100394.22;;;27.27;47.47
14269;BME280;7218;51.480;7.006;2023-05-21T12:19:02;100386.19;;;27.58;46.69
14269;BME280;7218;51.480;7.006;2023-05-21T12:21:30;100385.28;;;27.78;44.38
14269;BME280;7218;51.480;7.006;2023-05-21T12:23:57;100393.75;;;27.83;46.32
14269;BME280;7218;51.480;7.006;2023-05-21T12:26:24;100389.47;;;27.71;47.06
14269;BME280;7218;51.480;7.006;2023-05-21T12:28:52;100385.63;;;27.54;44.94
14269;BME280;7218;51.480;7.006;2023-05-21T12:31:19;100379.13;;;27.57;45.15
14269;BME280;7218;51.480;7.006;2023-05-21T12:33:47;100372.59;;;27.90;44.56
14269;BME280;7218;51.480;7.006;2023-05-21T12:36:24;100372.56;;;28.58;43.25
14269;BME280;7218;51.480;7.006;2023-05-21T12:38:52;100365.63;;;28.75;41.83
14269;BME280;7218;51.480;7.006;2023-05-21T12:41:20;100381.66;;;29.14;41.97
14269;BME280;7218;51.480;7.006;2023-05-21T12:43:47;100379.88;;;28.76;42.40
14269;BME280;7218;51.480;7.006;2023-05-21T12:46:15;100381.84;;;28.25;42.96
14269;BME280;7218;51.480;7.006;2023-05-21T12:48:47;100372.09;;;28.15;44.10
14269;BME280;7218;51.480;7.006;2023-05-21T12:51:13;100386.53;;;27.74;43.98
14269;BME280;7218;51.480;7.006;2023-05-21T12:53:40;100375.88;;;27.93;46.14
14269;BME280;7218;51.480;7.006;2023-05-21T12:56:09;100370.00;;;27.29;45.07
14269;BME280;7218;51.480;7.006;2023-05-21T12:58:36;100377.91;;;27.40;46.94